Gaz Venture — 3FLQ4 — position and weather

sailwx.info

Track history (hours):
 
Tides and Currents Weather Stations Pressure Air Temp Water Temp Dewpoint Dewpoint Depression Visibility Wind Speed Wind Dir Waves Ship Positions

Gaz Venture

Last reported at 2015-Aug-02 13:25 UTC. Time now 2015-Aug-03 00:27 UTC.
Position N 35°03' E 020°31'.

Length 120 m; draft 7.4 m.

Type: Ship (hazmat cat D). MMSI: 356141000.

Date/timePositionNaut miles runAvg speedWind from/ knotsBaromVisibWave heightAir tempDewpointWater temp
2015-Aug-02 13:25N 35°03' E 020°31'1514.4
2015-Aug-02 12:24N 35°05' E 020°14'13014.4
2015-Aug-02 03:23N 35°24' E 017°36'2714.5
2015-Aug-02 01:33N 35°28' E 017°03'1514.7
2015-Aug-02 00:33N 35°30' E 016°46'1414.4
2015-Aug-01 23:33N 35°32' E 016°28'1414.2
2015-Aug-01 22:33N 35°35' E 016°11'1414.0
2015-Aug-01 21:33N 35°37' E 015°54'1414.0
2015-Aug-01 20:33N 35°40' E 015°37'1312.6
2015-Aug-01 19:33N 35°42' E 015°22'0 0.2
2015-Aug-01 18:33N 35°41' E 015°22'0 0.3
2015-Aug-01 17:32N 35°41' E 015°22'0 0.2
2015-Aug-01 16:32N 35°42' E 015°23'0 0.2
2015-Aug-01 15:32N 35°42' E 015°23'0 0.2
2015-Aug-01 14:32N 35°42' E 015°23'0 0.2
2015-Aug-01 13:32N 35°42' E 015°23'0 0.3
2015-Aug-01 12:32N 35°42' E 015°24'0 0.4
2015-Aug-01 11:32N 35°42' E 015°24'0 0.3
2015-Aug-01 10:32N 35°43' E 015°24'0 0.2
2015-Aug-01 09:32N 35°43' E 015°24'0 0.3
2015-Aug-01 08:26N 35°43' E 015°24'0 0.4
2015-Aug-01 07:29N 35°43' E 015°23'0 0.5
2015-Aug-01 06:32N 35°44' E 015°23'1 0.6
2015-Aug-01 05:33N 35°44' E 015°23'1 0.6
2015-Aug-01 04:33N 35°44' E 015°22'1 0.7
2015-Aug-01 03:25N 35°45' E 015°21'1 0.8
2015-Aug-01 02:33N 35°44' E 015°20'1 0.6
2015-Aug-01 01:33N 35°44' E 015°20'1 0.6
2015-Aug-01 00:33N 35°44' E 015°19'0 0.5
2015-Jul-31 23:33N 35°44' E 015°18'0 0.5
2015-Jul-31 22:33N 35°44' E 015°18'1 0.5
2015-Jul-31 21:33N 35°43' E 015°17'1 0.5
2015-Jul-31 20:33N 35°43' E 015°17'5 5.1
2015-Jul-31 19:31N 35°38' E 015°15'0 0.2
2015-Jul-31 18:25N 35°38' E 015°15'0 0.2
2015-Jul-31 17:31N 35°38' E 015°15'0 0.1
2015-Jul-31 16:28N 35°38' E 015°15'0 0.3
2015-Jul-31 15:31N 35°38' E 015°15'1 1.0
2015-Jul-31 14:33N 35°37' E 015°15'5 5.4
2015-Jul-31 13:33N 35°31' E 015°15'1010.2
2015-Jul-31 12:33N 35°38' E 015°06'1413.8
2015-Jul-31 11:33N 35°49' E 014°56'2 2.0
2015-Jul-31 10:31N 35°51' E 014°54'0 0.0
2015-Jul-31 09:31N 35°51' E 014°54'0 0.0
2015-Jul-31 08:31N 35°51' E 014°54'0 0.0
2015-Jul-31 07:31N 35°51' E 014°54'0 0.0
2015-Jul-31 06:31N 35°51' E 014°54'0 0.0
2015-Jul-31 05:31N 35°51' E 014°54'0 0.0
2015-Jul-31 04:31N 35°51' E 014°54'0 0.0
2015-Jul-31 03:31N 35°51' E 014°54'0 0.0
2015-Jul-31 02:31N 35°51' E 014°54'0 0.0
2015-Jul-31 01:31N 35°51' E 014°54'0 0.0
2015-Jul-31 00:31N 35°51' E 014°54'0 0.0
2015-Jul-30 23:28N 35°51' E 014°54'0 0.0
2015-Jul-30 22:31N 35°51' E 014°54'0 0.0
2015-Jul-30 21:31N 35°51' E 014°54'0 0.0
2015-Jul-30 20:31N 35°51' E 014°54'0 0.1
2015-Jul-30 19:31N 35°51' E 014°54'0 0.0
2015-Jul-30 18:31N 35°51' E 014°54'0 0.0
2015-Jul-30 17:31N 35°51' E 014°54'0 0.0
2015-Jul-30 16:31N 35°51' E 014°54'0 0.0
2015-Jul-30 15:31N 35°51' E 014°54'0 0.0
2015-Jul-30 14:31N 35°51' E 014°54'0 0.0
2015-Jul-30 13:31N 35°51' E 014°54'0 0.0
2015-Jul-30 12:31N 35°51' E 014°54'0 0.0
2015-Jul-30 11:31N 35°51' E 014°54'0 0.0
2015-Jul-30 10:31N 35°51' E 014°54'0 0.0
2015-Jul-30 09:31N 35°51' E 014°54'0 0.0
2015-Jul-30 08:31N 35°51' E 014°54'0 0.0
2015-Jul-30 07:31N 35°51' E 014°54'0 0.0
2015-Jul-30 06:31N 35°51' E 014°54'0 0.0
2015-Jul-30 05:31N 35°51' E 014°54'0 0.0
2015-Jul-30 04:31N 35°51' E 014°54'0 0.0
2015-Jul-30 03:31N 35°51' E 014°54'0 0.0
2015-Jul-30 02:31N 35°51' E 014°54'0 0.0
2015-Jul-30 01:28N 35°51' E 014°54'0 0.0
2015-Jul-30 00:31N 35°51' E 014°54'0 0.0
2015-Jul-29 23:04N 35°51' E 014°54'0 0.0
2015-Jul-29 22:25N 35°51' E 014°54'0 0.0
2015-Jul-29 21:31N 35°51' E 014°54'0 0.0
2015-Jul-29 20:31N 35°51' E 014°54'0 0.0
2015-Jul-29 19:31N 35°51' E 014°54'0 0.0
2015-Jul-29 18:31N 35°51' E 014°54'0 0.0
2015-Jul-29 17:31N 35°51' E 014°54'0 0.0
2015-Jul-29 16:31N 35°51' E 014°54'0 0.0
2015-Jul-29 15:31N 35°51' E 014°54'0 0.0
2015-Jul-29 14:31N 35°51' E 014°54'0 0.0
2015-Jul-29 13:31N 35°51' E 014°54'0 0.0
2015-Jul-29 12:31N 35°51' E 014°54'0 0.0
2015-Jul-29 11:31N 35°51' E 014°54'0 0.0
2015-Jul-29 10:31N 35°51' E 014°54'0 0.0
2015-Jul-29 09:31N 35°51' E 014°54'0 0.0
2015-Jul-29 08:19N 35°51' E 014°54'0 0.0
2015-Jul-29 07:31N 35°51' E 014°54'0 0.0
2015-Jul-29 06:31N 35°51' E 014°54'0 0.0
2015-Jul-29 05:25N 35°51' E 014°54'0 0.0
2015-Jul-29 04:31N 35°51' E 014°54'0 0.0
2015-Jul-29 03:31N 35°51' E 014°54'0 0.0
2015-Jul-29 02:31N 35°51' E 014°54'0 0.0
2015-Jul-29 01:31N 35°51' E 014°54'0 0.0
2015-Jul-29 00:31N 35°51' E 014°54'0 0.0
2015-Jul-28 23:31N 35°51' E 014°54'0 0.0
2015-Jul-28 22:31N 35°51' E 014°54'0 0.0
2015-Jul-28 21:31N 35°51' E 014°54'0 0.0
2015-Jul-28 20:25N 35°51' E 014°54'0 0.0
2015-Jul-28 19:28N 35°51' E 014°54'0 0.0
2015-Jul-28 18:31N 35°51' E 014°54'0 0.0
2015-Jul-28 17:28N 35°51' E 014°54'0 0.0
2015-Jul-28 16:31N 35°51' E 014°54'0 0.0
2015-Jul-28 15:31N 35°51' E 014°54'0 0.0
2015-Jul-28 14:31N 35°51' E 014°54'0 0.0
2015-Jul-28 13:31N 35°51' E 014°54'0 0.0
2015-Jul-28 12:31N 35°51' E 014°54'0 0.0
2015-Jul-28 11:31N 35°51' E 014°54'0 0.0
2015-Jul-28 10:31N 35°51' E 014°54'0 0.0
2015-Jul-28 09:31N 35°51' E 014°54'0 0.0
2015-Jul-28 08:31N 35°51' E 014°54'0 0.0
2015-Jul-28 07:31N 35°51' E 014°54'0 0.0
2015-Jul-28 06:28N 35°51' E 014°54'0 0.0
2015-Jul-28 05:31N 35°51' E 014°54'0 0.0
2015-Jul-28 04:31N 35°51' E 014°54'0 0.0
2015-Jul-28 03:31N 35°51' E 014°54'0 0.0
2015-Jul-28 02:31N 35°51' E 014°54'0 0.0
2015-Jul-28 01:31N 35°51' E 014°54'0 0.0
2015-Jul-28 00:31N 35°51' E 014°54'0 0.0
2015-Jul-27 23:28N 35°51' E 014°54'0 0.0
2015-Jul-27 22:22N 35°51' E 014°54'0 0.0
2015-Jul-27 21:22N 35°51' E 014°54'0 0.0
2015-Jul-27 20:25N 35°51' E 014°54'0 0.0
2015-Jul-27 19:28N 35°51' E 014°54'0 0.1
2015-Jul-27 18:32N 35°51' E 014°54'1111.5
2015-Jul-27 17:34N 35°57' E 014°43'1414.4
2015-Jul-27 16:33N 36°06' E 014°28'1515.0
2015-Jul-27 15:33N 36°14' E 014°13'1515.2
2015-Jul-27 14:34N 36°22' E 013°57'1515.4
2015-Jul-27 13:34N 36°32' E 013°42'1515.4
2015-Jul-27 12:33N 36°40' E 013°26'1515.4
2015-Jul-27 11:33N 36°49' E 013°10'1515.3
2015-Jul-27 10:34N 36°58' E 012°55'1515.0
2015-Jul-27 09:33N 37°07' E 012°39'1515.0
2015-Jul-27 08:33N 37°15' E 012°23'3015.3
2015-Jul-27 06:33N 37°32' E 011°52'9714.9
2015-Jul-27 00:06N 38°28' E 010°11'814.9
2015-Jul-26 23:33N 38°32' E 010°03'1614.9
2015-Jul-26 22:28N 38°41' E 009°46'1415.2
2015-Jul-26 21:33N 38°49' E 009°31'1515.0
2015-Jul-26 20:33N 38°58' E 009°15'1111.5
2015-Jul-26 19:33N 39°04' E 009°03'0 0.1
2015-Jul-26 18:33N 39°04' E 009°03'1 0.7
2015-Jul-26 17:33N 39°05' E 009°03'1 0.6
2015-Jul-26 16:33N 39°05' E 009°02'0 0.0
2015-Jul-26 15:33N 39°05' E 009°02'0 0.0
2015-Jul-26 14:33N 39°05' E 009°02'0 0.0
2015-Jul-26 13:30N 39°05' E 009°02'0 0.0
2015-Jul-26 12:33N 39°05' E 009°02'0 0.0
2015-Jul-26 11:33N 39°05' E 009°02'0 0.0
2015-Jul-26 10:33N 39°05' E 009°02'0 0.0
2015-Jul-26 09:33N 39°05' E 009°02'0 0.0
2015-Jul-26 08:33N 39°05' E 009°02'0 0.0
2015-Jul-26 07:33N 39°05' E 009°02'0 0.0
2015-Jul-26 06:33N 39°05' E 009°02'0 0.0
2015-Jul-26 05:33N 39°05' E 009°02'0 0.0
2015-Jul-26 04:33N 39°05' E 009°02'0 0.0
2015-Jul-26 03:33N 39°05' E 009°02'0 0.0
2015-Jul-26 02:33N 39°05' E 009°02'0 0.0
2015-Jul-26 01:33N 39°05' E 009°02'0 0.0
2015-Jul-26 00:33N 39°05' E 009°02'0 0.0
2015-Jul-25 23:33N 39°05' E 009°02'0 0.0
2015-Jul-25 22:33N 39°05' E 009°02'0 0.0
2015-Jul-25 21:33N 39°05' E 009°02'0 0.0
2015-Jul-25 20:33N 39°05' E 009°02'0 0.0
2015-Jul-25 19:33N 39°05' E 009°02'0 0.0
2015-Jul-25 18:33N 39°05' E 009°02'0 0.0
2015-Jul-25 17:33N 39°05' E 009°02'0 0.0
2015-Jul-25 16:33N 39°05' E 009°02'0 0.0
2015-Jul-25 15:33N 39°05' E 009°02'0 0.0
2015-Jul-25 14:33N 39°05' E 009°02'0 0.0
2015-Jul-25 13:33N 39°05' E 009°02'0 0.0
2015-Jul-25 12:33N 39°05' E 009°02'0 0.0
2015-Jul-25 11:30N 39°05' E 009°02'0 0.0
2015-Jul-25 10:30N 39°05' E 009°02'0 0.0
2015-Jul-25 09:33N 39°05' E 009°02'0 0.0
2015-Jul-25 08:30N 39°05' E 009°02'0 0.1
2015-Jul-25 07:33N 39°05' E 009°02'1 1.2
2015-Jul-25 06:32N 39°04' E 009°03'1 1.2
2015-Jul-25 05:33N 39°04' E 009°05'9 9.0
2015-Jul-25 04:33N 38°58' E 009°14'9 8.4
2015-Jul-25 03:32N 38°54' E 009°23'16014.5
2015-Jul-24 16:32N 37°23' E 012°10'1614.0
2015-Jul-24 15:24N 37°13' E 012°27'1214.0
2015-Jul-24 14:33N 37°07' E 012°39'1413.7
2015-Jul-24 13:33N 36°59' E 012°53'1313.2
2015-Jul-24 12:33N 36°52' E 013°06'1313.5
2015-Jul-24 11:33N 36°44' E 013°20'1413.8
2015-Jul-24 10:33N 36°36' E 013°34'1414.1
2015-Jul-24 09:33N 36°28' E 013°49'1414.3
2015-Jul-24 08:33N 36°20' E 014°03'1514.8
2015-Jul-24 07:33N 36°11' E 014°19'1515.0
2015-Jul-24 06:33N 36°03' E 014°33'1413.6
2015-Jul-24 05:33N 35°55' E 014°48'0 0.5
2015-Jul-24 04:33N 35°55' E 014°48'4 4.0
2015-Jul-24 03:31N 35°52' E 014°52'0 0.0
2015-Jul-24 02:31N 35°52' E 014°52'0 0.0
2015-Jul-24 01:31N 35°52' E 014°52'0 0.0
2015-Jul-24 00:31N 35°52' E 014°52'0 0.0
2015-Jul-23 23:31N 35°52' E 014°52'0 0.0
2015-Jul-23 22:31N 35°52' E 014°52'0 0.0
2015-Jul-23 21:31N 35°52' E 014°52'0 0.0
2015-Jul-23 20:31N 35°52' E 014°52'0 0.0
2015-Jul-23 19:31N 35°52' E 014°52'0 0.0
2015-Jul-23 18:31N 35°52' E 014°52'0 0.0
2015-Jul-23 17:31N 35°52' E 014°52'0 0.0
2015-Jul-23 16:31N 35°52' E 014°52'0 0.0
2015-Jul-23 15:31N 35°52' E 014°52'0 0.0
2015-Jul-23 14:31N 35°52' E 014°52'0 0.0
2015-Jul-23 13:31N 35°52' E 014°52'  
Track history (hours):
 
Tides and Currents Weather Stations Pressure Air Temp Water Temp Dewpoint Dewpoint Depression Visibility Wind Speed Wind Dir Waves Ship Positions

Gaz Venture

Last reported at 2015-Aug-02 13:25 UTC. Time now 2015-Aug-03 00:27 UTC.
Position N 35°03' E 020°31'.

Length 120 m; draft 7.4 m.

Type: Ship (hazmat cat D). MMSI: 356141000.

Date/timePositionNaut miles runAvg speedWind from/ knotsBaromVisibWave heightAir tempDewpointWater temp
2015-Aug-02 13:25N 35°03' E 020°31'1514.4
2015-Aug-02 12:24N 35°05' E 020°14'13014.4
2015-Aug-02 03:23N 35°24' E 017°36'2714.5
2015-Aug-02 01:33N 35°28' E 017°03'1514.7
2015-Aug-02 00:33N 35°30' E 016°46'1414.4
2015-Aug-01 23:33N 35°32' E 016°28'1414.2
2015-Aug-01 22:33N 35°35' E 016°11'1414.0
2015-Aug-01 21:33N 35°37' E 015°54'1414.0
2015-Aug-01 20:33N 35°40' E 015°37'1312.6
2015-Aug-01 19:33N 35°42' E 015°22'0 0.2
2015-Aug-01 18:33N 35°41' E 015°22'0 0.3
2015-Aug-01 17:32N 35°41' E 015°22'0 0.2
2015-Aug-01 16:32N 35°42' E 015°23'0 0.2
2015-Aug-01 15:32N 35°42' E 015°23'0 0.2
2015-Aug-01 14:32N 35°42' E 015°23'0 0.2
2015-Aug-01 13:32N 35°42' E 015°23'0 0.3
2015-Aug-01 12:32N 35°42' E 015°24'0 0.4
2015-Aug-01 11:32N 35°42' E 015°24'0 0.3
2015-Aug-01 10:32N 35°43' E 015°24'0 0.2
2015-Aug-01 09:32N 35°43' E 015°24'0 0.3
2015-Aug-01 08:26N 35°43' E 015°24'0 0.4
2015-Aug-01 07:29N 35°43' E 015°23'0 0.5
2015-Aug-01 06:32N 35°44' E 015°23'1 0.6
2015-Aug-01 05:33N 35°44' E 015°23'1 0.6
2015-Aug-01 04:33N 35°44' E 015°22'1 0.7
2015-Aug-01 03:25N 35°45' E 015°21'1 0.8
2015-Aug-01 02:33N 35°44' E 015°20'1 0.6
2015-Aug-01 01:33N 35°44' E 015°20'1 0.6
2015-Aug-01 00:33N 35°44' E 015°19'0 0.5
2015-Jul-31 23:33N 35°44' E 015°18'0 0.5
2015-Jul-31 22:33N 35°44' E 015°18'1 0.5
2015-Jul-31 21:33N 35°43' E 015°17'1 0.5
2015-Jul-31 20:33N 35°43' E 015°17'5 5.1
2015-Jul-31 19:31N 35°38' E 015°15'0 0.2
2015-Jul-31 18:25N 35°38' E 015°15'0 0.2
2015-Jul-31 17:31N 35°38' E 015°15'0 0.1
2015-Jul-31 16:28N 35°38' E 015°15'0 0.3
2015-Jul-31 15:31N 35°38' E 015°15'1 1.0
2015-Jul-31 14:33N 35°37' E 015°15'5 5.4
2015-Jul-31 13:33N 35°31' E 015°15'1010.2
2015-Jul-31 12:33N 35°38' E 015°06'1413.8
2015-Jul-31 11:33N 35°49' E 014°56'2 2.0
2015-Jul-31 10:31N 35°51' E 014°54'0 0.0
2015-Jul-31 09:31N 35°51' E 014°54'0 0.0
2015-Jul-31 08:31N 35°51' E 014°54'0 0.0
2015-Jul-31 07:31N 35°51' E 014°54'0 0.0
2015-Jul-31 06:31N 35°51' E 014°54'0 0.0
2015-Jul-31 05:31N 35°51' E 014°54'0 0.0
2015-Jul-31 04:31N 35°51' E 014°54'0 0.0
2015-Jul-31 03:31N 35°51' E 014°54'0 0.0
2015-Jul-31 02:31N 35°51' E 014°54'0 0.0
2015-Jul-31 01:31N 35°51' E 014°54'0 0.0
2015-Jul-31 00:31N 35°51' E 014°54'0 0.0
2015-Jul-30 23:28N 35°51' E 014°54'0 0.0
2015-Jul-30 22:31N 35°51' E 014°54'0 0.0
2015-Jul-30 21:31N 35°51' E 014°54'0 0.0
2015-Jul-30 20:31N 35°51' E 014°54'0 0.1
2015-Jul-30 19:31N 35°51' E 014°54'0 0.0
2015-Jul-30 18:31N 35°51' E 014°54'0 0.0
2015-Jul-30 17:31N 35°51' E 014°54'0 0.0
2015-Jul-30 16:31N 35°51' E 014°54'0 0.0
2015-Jul-30 15:31N 35°51' E 014°54'0 0.0
2015-Jul-30 14:31N 35°51' E 014°54'0 0.0
2015-Jul-30 13:31N 35°51' E 014°54'0 0.0
2015-Jul-30 12:31N 35°51' E 014°54'0 0.0
2015-Jul-30 11:31N 35°51' E 014°54'0 0.0
2015-Jul-30 10:31N 35°51' E 014°54'0 0.0
2015-Jul-30 09:31N 35°51' E 014°54'0 0.0
2015-Jul-30 08:31N 35°51' E 014°54'0 0.0
2015-Jul-30 07:31N 35°51' E 014°54'0 0.0
2015-Jul-30 06:31N 35°51' E 014°54'0 0.0
2015-Jul-30 05:31N 35°51' E 014°54'0 0.0
2015-Jul-30 04:31N 35°51' E 014°54'0 0.0
2015-Jul-30 03:31N 35°51' E 014°54'0 0.0
2015-Jul-30 02:31N 35°51' E 014°54'0 0.0
2015-Jul-30 01:28N 35°51' E 014°54'0 0.0
2015-Jul-30 00:31N 35°51' E 014°54'0 0.0
2015-Jul-29 23:04N 35°51' E 014°54'0 0.0
2015-Jul-29 22:25N 35°51' E 014°54'0 0.0
2015-Jul-29 21:31N 35°51' E 014°54'0 0.0
2015-Jul-29 20:31N 35°51' E 014°54'0 0.0
2015-Jul-29 19:31N 35°51' E 014°54'0 0.0
2015-Jul-29 18:31N 35°51' E 014°54'0 0.0
2015-Jul-29 17:31N 35°51' E 014°54'0 0.0
2015-Jul-29 16:31N 35°51' E 014°54'0 0.0
2015-Jul-29 15:31N 35°51' E 014°54'0 0.0
2015-Jul-29 14:31N 35°51' E 014°54'0 0.0
2015-Jul-29 13:31N 35°51' E 014°54'0 0.0
2015-Jul-29 12:31N 35°51' E 014°54'0 0.0
2015-Jul-29 11:31N 35°51' E 014°54'0 0.0
2015-Jul-29 10:31N 35°51' E 014°54'0 0.0
2015-Jul-29 09:31N 35°51' E 014°54'0 0.0
2015-Jul-29 08:19N 35°51' E 014°54'0 0.0
2015-Jul-29 07:31N 35°51' E 014°54'0 0.0
2015-Jul-29 06:31N 35°51' E 014°54'0 0.0
2015-Jul-29 05:25N 35°51' E 014°54'0 0.0
2015-Jul-29 04:31N 35°51' E 014°54'0 0.0
2015-Jul-29 03:31N 35°51' E 014°54'0 0.0
2015-Jul-29 02:31N 35°51' E 014°54'0 0.0
2015-Jul-29 01:31N 35°51' E 014°54'0 0.0
2015-Jul-29 00:31N 35°51' E 014°54'0 0.0
2015-Jul-28 23:31N 35°51' E 014°54'0 0.0
2015-Jul-28 22:31N 35°51' E 014°54'0 0.0
2015-Jul-28 21:31N 35°51' E 014°54'0 0.0
2015-Jul-28 20:25N 35°51' E 014°54'0 0.0
2015-Jul-28 19:28N 35°51' E 014°54'0 0.0
2015-Jul-28 18:31N 35°51' E 014°54'0 0.0
2015-Jul-28 17:28N 35°51' E 014°54'0 0.0
2015-Jul-28 16:31N 35°51' E 014°54'0 0.0
2015-Jul-28 15:31N 35°51' E 014°54'0 0.0
2015-Jul-28 14:31N 35°51' E 014°54'0 0.0
2015-Jul-28 13:31N 35°51' E 014°54'0 0.0
2015-Jul-28 12:31N 35°51' E 014°54'0 0.0
2015-Jul-28 11:31N 35°51' E 014°54'0 0.0
2015-Jul-28 10:31N 35°51' E 014°54'0 0.0
2015-Jul-28 09:31N 35°51' E 014°54'0 0.0
2015-Jul-28 08:31N 35°51' E 014°54'0 0.0
2015-Jul-28 07:31N 35°51' E 014°54'0 0.0
2015-Jul-28 06:28N 35°51' E 014°54'0 0.0
2015-Jul-28 05:31N 35°51' E 014°54'0 0.0
2015-Jul-28 04:31N 35°51' E 014°54'0 0.0
2015-Jul-28 03:31N 35°51' E 014°54'0 0.0
2015-Jul-28 02:31N 35°51' E 014°54'0 0.0
2015-Jul-28 01:31N 35°51' E 014°54'0 0.0
2015-Jul-28 00:31N 35°51' E 014°54'0 0.0
2015-Jul-27 23:28N 35°51' E 014°54'0 0.0
2015-Jul-27 22:22N 35°51' E 014°54'0 0.0
2015-Jul-27 21:22N 35°51' E 014°54'0 0.0
2015-Jul-27 20:25N 35°51' E 014°54'0 0.0
2015-Jul-27 19:28N 35°51' E 014°54'0 0.1
2015-Jul-27 18:32N 35°51' E 014°54'1111.5
2015-Jul-27 17:34N 35°57' E 014°43'1414.4
2015-Jul-27 16:33N 36°06' E 014°28'1515.0
2015-Jul-27 15:33N 36°14' E 014°13'1515.2
2015-Jul-27 14:34N 36°22' E 013°57'1515.4
2015-Jul-27 13:34N 36°32' E 013°42'1515.4
2015-Jul-27 12:33N 36°40' E 013°26'1515.4
2015-Jul-27 11:33N 36°49' E 013°10'1515.3
2015-Jul-27 10:34N 36°58' E 012°55'1515.0
2015-Jul-27 09:33N 37°07' E 012°39'1515.0
2015-Jul-27 08:33N 37°15' E 012°23'3015.3
2015-Jul-27 06:33N 37°32' E 011°52'9714.9
2015-Jul-27 00:06N 38°28' E 010°11'814.9
2015-Jul-26 23:33N 38°32' E 010°03'1614.9
2015-Jul-26 22:28N 38°41' E 009°46'1415.2
2015-Jul-26 21:33N 38°49' E 009°31'1515.0
2015-Jul-26 20:33N 38°58' E 009°15'1111.5
2015-Jul-26 19:33N 39°04' E 009°03'0 0.1
2015-Jul-26 18:33N 39°04' E 009°03'1 0.7
2015-Jul-26 17:33N 39°05' E 009°03'1 0.6
2015-Jul-26 16:33N 39°05' E 009°02'0 0.0
2015-Jul-26 15:33N 39°05' E 009°02'0 0.0
2015-Jul-26 14:33N 39°05' E 009°02'0 0.0
2015-Jul-26 13:30N 39°05' E 009°02'0 0.0
2015-Jul-26 12:33N 39°05' E 009°02'0 0.0
2015-Jul-26 11:33N 39°05' E 009°02'0 0.0
2015-Jul-26 10:33N 39°05' E 009°02'0 0.0
2015-Jul-26 09:33N 39°05' E 009°02'0 0.0
2015-Jul-26 08:33N 39°05' E 009°02'0 0.0
2015-Jul-26 07:33N 39°05' E 009°02'0 0.0
2015-Jul-26 06:33N 39°05' E 009°02'0 0.0
2015-Jul-26 05:33N 39°05' E 009°02'0 0.0
2015-Jul-26 04:33N 39°05' E 009°02'0 0.0
2015-Jul-26 03:33N 39°05' E 009°02'0 0.0
2015-Jul-26 02:33N 39°05' E 009°02'0 0.0
2015-Jul-26 01:33N 39°05' E 009°02'0 0.0
2015-Jul-26 00:33N 39°05' E 009°02'0 0.0
2015-Jul-25 23:33N 39°05' E 009°02'0 0.0
2015-Jul-25 22:33N 39°05' E 009°02'0 0.0
2015-Jul-25 21:33N 39°05' E 009°02'0 0.0
2015-Jul-25 20:33N 39°05' E 009°02'0 0.0
2015-Jul-25 19:33N 39°05' E 009°02'0 0.0
2015-Jul-25 18:33N 39°05' E 009°02'0 0.0
2015-Jul-25 17:33N 39°05' E 009°02'0 0.0
2015-Jul-25 16:33N 39°05' E 009°02'0 0.0
2015-Jul-25 15:33N 39°05' E 009°02'0 0.0
2015-Jul-25 14:33N 39°05' E 009°02'0 0.0
2015-Jul-25 13:33N 39°05' E 009°02'0 0.0
2015-Jul-25 12:33N 39°05' E 009°02'0 0.0
2015-Jul-25 11:30N 39°05' E 009°02'0 0.0
2015-Jul-25 10:30N 39°05' E 009°02'0 0.0
2015-Jul-25 09:33N 39°05' E 009°02'0 0.0
2015-Jul-25 08:30N 39°05' E 009°02'0 0.1
2015-Jul-25 07:33N 39°05' E 009°02'1 1.2
2015-Jul-25 06:32N 39°04' E 009°03'1 1.2
2015-Jul-25 05:33N 39°04' E 009°05'9 9.0
2015-Jul-25 04:33N 38°58' E 009°14'9 8.4
2015-Jul-25 03:32N 38°54' E 009°23'16014.5
2015-Jul-24 16:32N 37°23' E 012°10'1614.0
2015-Jul-24 15:24N 37°13' E 012°27'1214.0
2015-Jul-24 14:33N 37°07' E 012°39'1413.7
2015-Jul-24 13:33N 36°59' E 012°53'1313.2
2015-Jul-24 12:33N 36°52' E 013°06'1313.5
2015-Jul-24 11:33N 36°44' E 013°20'1413.8
2015-Jul-24 10:33N 36°36' E 013°34'1414.1
2015-Jul-24 09:33N 36°28' E 013°49'1414.3
2015-Jul-24 08:33N 36°20' E 014°03'1514.8
2015-Jul-24 07:33N 36°11' E 014°19'1515.0
2015-Jul-24 06:33N 36°03' E 014°33'1413.6
2015-Jul-24 05:33N 35°55' E 014°48'0 0.5
2015-Jul-24 04:33N 35°55' E 014°48'4 4.0
2015-Jul-24 03:31N 35°52' E 014°52'0 0.0
2015-Jul-24 02:31N 35°52' E 014°52'0 0.0
2015-Jul-24 01:31N 35°52' E 014°52'0 0.0
2015-Jul-24 00:31N 35°52' E 014°52'0 0.0
2015-Jul-23 23:31N 35°52' E 014°52'0 0.0
2015-Jul-23 22:31N 35°52' E 014°52'0 0.0
2015-Jul-23 21:31N 35°52' E 014°52'0 0.0
2015-Jul-23 20:31N 35°52' E 014°52'0 0.0
2015-Jul-23 19:31N 35°52' E 014°52'0 0.0
2015-Jul-23 18:31N 35°52' E 014°52'0 0.0
2015-Jul-23 17:31N 35°52' E 014°52'0 0.0
2015-Jul-23 16:31N 35°52' E 014°52'0 0.0
2015-Jul-23 15:31N 35°52' E 014°52'0 0.0
2015-Jul-23 14:31N 35°52' E 014°52'0 0.0
2015-Jul-23 13:31N 35°52' E 014°52'  

Dump ship's entire track history